createdAt,value
2022-11-18T00:00:44.099Z,99.90
2022-11-18T00:01:45.999Z,99.90
2022-11-18T00:02:47.756Z,99.90
2022-11-18T00:03:50.695Z,99.90
2022-11-18T00:04:52.418Z,99.90
2022-11-18T00:05:56.100Z,99.90
2022-11-18T00:06:57.929Z,99.90
2022-11-18T00:07:59.718Z,99.90
2022-11-18T00:09:01.459Z,99.90
2022-11-18T00:10:03.552Z,99.90
2022-11-18T00:11:07.016Z,99.90
2022-11-18T00:12:27.207Z,99.90
2022-11-18T00:13:47.790Z,99.90
2022-11-18T00:14:49.551Z,99.90
2022-11-18T00:16:04.150Z,99.90
2022-11-18T00:17:07.283Z,99.90
2022-11-18T00:18:09.131Z,99.90
2022-11-18T00:19:10.888Z,99.90
2022-11-18T00:20:12.644Z,99.90
2022-11-18T00:21:14.489Z,99.90
2022-11-18T00:22:16.316Z,99.90
2022-11-18T00:23:18.050Z,99.90
2022-11-18T00:24:20.679Z,99.90
2022-11-18T00:25:22.450Z,99.90
2022-11-18T00:26:24.177Z,99.90
2022-11-18T00:27:25.958Z,99.90
2022-11-18T00:28:27.878Z,99.90
2022-11-18T00:29:30.928Z,99.90
2022-11-18T00:30:32.717Z,99.90
2022-11-18T00:31:34.990Z,99.90
2022-11-18T00:32:36.719Z,99.90
2022-11-18T00:33:39.221Z,99.90
2022-11-18T00:34:42.414Z,99.90
2022-11-18T00:35:44.188Z,99.90
2022-11-18T00:36:47.154Z,99.90
2022-11-18T00:37:48.951Z,99.90
2022-11-18T00:38:50.712Z,99.90
2022-11-18T00:39:52.471Z,99.90
2022-11-18T00:41:09.054Z,99.90
2022-11-18T00:42:29.574Z,99.90
2022-11-18T00:43:31.653Z,99.90
2022-11-18T00:44:33.778Z,99.90
2022-11-18T00:45:35.549Z,99.90
2022-11-18T00:46:37.279Z,99.90
2022-11-18T00:47:38.985Z,99.90
2022-11-18T00:48:40.997Z,99.90
2022-11-18T00:49:42.729Z,99.90
2022-11-18T00:50:44.501Z,99.90
2022-11-18T00:51:46.369Z,99.90
2022-11-18T00:52:48.114Z,99.90
2022-11-18T00:53:49.881Z,99.90
2022-11-18T00:54:51.633Z,99.90
2022-11-18T00:55:53.602Z,99.90
2022-11-18T00:56:55.395Z,99.90
2022-11-18T00:57:57.101Z,99.90
2022-11-18T00:58:59.242Z,99.90
2022-11-18T01:00:01.019Z,99.90
2022-11-18T01:01:04.258Z,99.90
2022-11-18T01:02:06.080Z,99.90
2022-11-18T01:03:08.550Z,99.90
2022-11-18T01:04:10.331Z,99.90
2022-11-18T01:05:12.045Z,99.90
2022-11-18T01:06:13.795Z,99.90
2022-11-18T01:07:15.582Z,99.90
2022-11-18T01:08:18.546Z,99.90
2022-11-18T01:09:20.398Z,99.90
2022-11-18T01:10:22.126Z,99.90
2022-11-18T01:11:42.384Z,99.90
2022-11-18T01:13:02.822Z,99.90
2022-11-18T01:14:04.608Z,99.90
2022-11-18T01:15:06.852Z,99.90
2022-11-18T01:16:08.595Z,99.90
2022-11-18T01:17:10.423Z,99.90
2022-11-18T01:18:12.421Z,99.90
2022-11-18T01:19:15.589Z,99.90
2022-11-18T01:20:17.634Z,99.90
2022-11-18T01:21:19.725Z,99.90
2022-11-18T01:22:21.450Z,99.90
2022-11-18T01:23:23.186Z,99.90
2022-11-18T01:24:24.938Z,99.90
2022-11-18T01:25:27.239Z,99.90
2022-11-18T01:26:28.974Z,99.90
2022-11-18T01:27:31.493Z,99.90
2022-11-18T01:28:33.277Z,99.90
2022-11-18T01:29:36.133Z,99.90
2022-11-18T01:30:39.304Z,99.90
2022-11-18T01:31:55.527Z,99.90
2022-11-18T01:33:04.321Z,99.90
2022-11-18T01:34:06.062Z,99.90
2022-11-18T01:35:08.180Z,99.90
2022-11-18T01:36:21.518Z,99.90
2022-11-18T01:37:23.414Z,99.90
2022-11-18T01:38:25.222Z,99.90
2022-11-18T01:39:26.974Z,99.90
2022-11-18T01:40:29.414Z,99.90
2022-11-18T01:41:31.360Z,99.90
2022-11-18T01:42:33.341Z,99.90
2022-11-18T01:43:59.692Z,99.90
2022-11-18T01:45:30.045Z,99.90
2022-11-18T01:46:34.119Z,99.90
2022-11-18T01:47:44.007Z,99.90
2022-11-18T01:48:49.991Z,99.90
2022-11-18T01:49:51.760Z,99.90
2022-11-18T01:51:01.958Z,99.90
2022-11-18T01:52:03.947Z,99.90
2022-11-18T01:53:16.331Z,99.90
2022-11-18T01:54:34.107Z,99.90
2022-11-18T01:55:40.502Z,99.90
2022-11-18T01:56:50.270Z,99.90
2022-11-18T01:57:58.453Z,99.90
2022-11-18T01:59:06.423Z,99.90
2022-11-18T02:00:08.978Z,99.90
2022-11-18T02:01:11.366Z,99.90
2022-11-18T02:02:15.356Z,99.90
2022-11-18T02:03:17.659Z,99.90
2022-11-18T02:04:19.869Z,99.90
2022-11-18T02:05:22.466Z,99.90
2022-11-18T02:06:24.226Z,99.90
2022-11-18T02:07:26.469Z,99.90
2022-11-18T02:08:29.998Z,99.90
2022-11-18T02:09:31.764Z,99.90
2022-11-18T02:10:33.662Z,99.90
2022-11-18T02:11:50.907Z,99.90
2022-11-18T02:12:54.598Z,99.90
2022-11-18T02:13:57.112Z,99.90
2022-11-18T02:14:59.799Z,99.90
2022-11-18T02:16:15.929Z,99.90
2022-11-18T02:17:42.370Z,99.90
2022-11-18T02:19:04.621Z,99.90
2022-11-18T02:20:09.118Z,99.90
2022-11-18T02:21:16.891Z,99.90
2022-11-18T02:22:53.264Z,99.90
2022-11-18T02:24:26.354Z,99.90
2022-11-18T02:26:03.214Z,99.90
2022-11-18T02:27:07.806Z,99.90
2022-11-18T02:28:47.809Z,99.90
2022-11-18T02:30:12.297Z,99.90
2022-11-18T02:31:25.641Z,99.90
2022-11-18T02:32:34.176Z,99.90
2022-11-18T02:33:44.414Z,99.90
2022-11-18T02:35:09.970Z,99.90
2022-11-18T02:36:19.155Z,99.90
2022-11-18T02:37:31.693Z,99.90
2022-11-18T02:38:41.788Z,99.90
2022-11-18T02:39:56.426Z,99.90
2022-11-18T02:41:10.735Z,99.90
2022-11-18T02:42:15.086Z,99.90
2022-11-18T02:43:30.486Z,99.90
2022-11-18T02:44:33.099Z,99.90
2022-11-18T02:45:37.154Z,99.90
2022-11-18T02:46:40.183Z,99.90
2022-11-18T02:47:45.792Z,99.90
2022-11-18T02:48:51.572Z,99.90
2022-11-18T02:49:58.041Z,99.90
2022-11-18T02:51:01.887Z,99.90
2022-11-18T02:52:06.224Z,99.90
2022-11-18T02:53:10.284Z,99.90
2022-11-18T02:54:13.675Z,99.90
2022-11-18T02:55:17.069Z,99.90
2022-11-18T02:56:21.366Z,99.90
2022-11-18T02:57:26.200Z,99.90
2022-11-18T02:58:27.940Z,99.90
2022-11-18T02:59:29.758Z,99.90
2022-11-18T03:00:32.850Z,99.90
2022-11-18T03:01:36.052Z,99.90
2022-11-18T03:02:49.087Z,99.90
2022-11-18T03:03:51.026Z,99.90
2022-11-18T03:04:56.791Z,99.90
2022-11-18T03:06:14.505Z,99.90
2022-11-18T03:07:30.364Z,99.90
2022-11-18T03:08:40.324Z,99.90
2022-11-18T03:09:46.923Z,99.90
2022-11-18T03:11:05.583Z,99.90
2022-11-18T03:12:20.696Z,99.90
2022-11-18T03:13:33.130Z,99.90
2022-11-18T03:15:01.189Z,99.90
2022-11-18T03:16:13.682Z,99.90
2022-11-18T03:17:29.148Z,99.90
2022-11-18T03:18:41.114Z,99.90
2022-11-18T03:20:01.016Z,99.90
2022-11-18T03:21:20.473Z,99.90
2022-11-18T03:22:37.726Z,99.90
2022-11-18T03:23:50.177Z,99.90
2022-11-18T03:25:02.900Z,99.90
2022-11-18T03:26:26.969Z,99.90
2022-11-18T03:27:39.884Z,99.90
2022-11-18T03:28:51.024Z,99.90
2022-11-18T03:30:03.407Z,99.90
2022-11-18T03:31:14.733Z,99.90
2022-11-18T03:32:23.206Z,99.90
2022-11-18T03:33:33.816Z,99.90
2022-11-18T03:34:40.485Z,99.90
2022-11-18T03:35:46.635Z,99.90
2022-11-18T03:36:57.184Z,99.90
2022-11-18T03:38:21.524Z,99.90
2022-11-18T03:39:25.999Z,99.90
2022-11-18T03:40:31.369Z,99.90
2022-11-18T03:41:36.988Z,99.90
2022-11-18T03:42:43.957Z,99.90
2022-11-18T03:43:57.883Z,99.90
2022-11-18T03:45:26.135Z,99.90
2022-11-18T03:46:42.493Z,99.90
2022-11-18T03:47:53.048Z,99.90
2022-11-18T03:48:58.234Z,99.90
2022-11-18T03:50:05.938Z,99.90
2022-11-18T03:51:13.539Z,99.90
2022-11-18T03:52:20.151Z,99.90
2022-11-18T03:53:27.789Z,99.90
2022-11-18T03:54:32.509Z,99.90
2022-11-18T03:55:39.598Z,99.90
2022-11-18T03:56:51.470Z,99.90
2022-11-18T03:57:59.038Z,99.90
2022-11-18T03:59:16.673Z,99.90
2022-11-18T04:00:20.251Z,99.90
2022-11-18T04:01:32.168Z,99.90
2022-11-18T04:02:34.722Z,99.90
2022-11-18T04:03:37.671Z,99.90
2022-11-18T04:04:40.086Z,99.90
2022-11-18T04:05:43.380Z,99.90
2022-11-18T04:07:08.129Z,99.90
2022-11-18T04:08:36.811Z,99.90
2022-11-18T04:09:46.163Z,99.90
2022-11-18T04:11:07.951Z,99.90
2022-11-18T04:12:14.086Z,99.90
2022-11-18T04:13:22.674Z,99.90
2022-11-18T04:14:24.464Z,99.90
2022-11-18T04:15:26.334Z,99.90
2022-11-18T04:16:28.133Z,99.90
2022-11-18T04:17:29.922Z,99.90
2022-11-18T04:18:31.713Z,99.90
2022-11-18T04:19:33.501Z,99.90
2022-11-18T04:20:37.446Z,99.90
2022-11-18T04:21:39.299Z,99.90
2022-11-18T04:22:41.048Z,99.90
2022-11-18T04:23:42.798Z,99.90
2022-11-18T04:24:44.762Z,99.90
2022-11-18T04:25:46.577Z,99.90
2022-11-18T04:26:48.336Z,99.90
2022-11-18T04:27:50.723Z,99.90
2022-11-18T04:28:52.481Z,99.90
2022-11-18T04:29:54.205Z,99.90
2022-11-18T04:30:55.964Z,99.90
2022-11-18T04:31:58.187Z,99.90
2022-11-18T04:32:59.944Z,99.90
2022-11-18T04:34:01.689Z,99.90
2022-11-18T04:35:03.766Z,99.90
2022-11-18T04:36:06.031Z,99.90
2022-11-18T04:37:07.778Z,99.90
2022-11-18T04:38:09.496Z,99.90
2022-11-18T04:39:11.427Z,99.90
2022-11-18T04:40:13.526Z,99.90
2022-11-18T04:41:15.348Z,99.90
2022-11-18T04:42:17.220Z,99.90
2022-11-18T04:43:18.977Z,99.90
2022-11-18T04:44:21.190Z,99.90
2022-11-18T04:45:22.983Z,99.90
2022-11-18T04:46:24.755Z,99.90
2022-11-18T04:47:26.593Z,99.90
2022-11-18T04:48:28.396Z,99.90
2022-11-18T04:49:30.341Z,99.90
2022-11-18T04:50:32.123Z,99.90
2022-11-18T04:51:33.831Z,99.90
2022-11-18T04:52:35.648Z,99.90
2022-11-18T04:53:37.396Z,99.90
2022-11-18T04:54:39.174Z,99.90
2022-11-18T04:55:40.894Z,99.90
2022-11-18T04:56:48.748Z,99.90
2022-11-18T04:57:51.034Z,99.90
2022-11-18T04:58:52.795Z,99.90
2022-11-18T04:59:54.590Z,99.90
2022-11-18T05:00:56.346Z,99.90
2022-11-18T05:02:01.106Z,99.90
2022-11-18T05:03:03.025Z,99.90
2022-11-18T05:04:06.256Z,99.90
2022-11-18T05:05:08.264Z,99.90
2022-11-18T05:06:09.987Z,99.90
2022-11-18T05:07:15.274Z,99.90
2022-11-18T05:08:17.049Z,99.90
2022-11-18T05:09:19.847Z,99.90
2022-11-18T05:10:21.916Z,99.90
2022-11-18T05:11:42.537Z,99.90
2022-11-18T05:12:50.360Z,99.90
2022-11-18T05:13:52.128Z,99.90
2022-11-18T05:14:53.871Z,99.90
2022-11-18T05:15:55.641Z,99.90
2022-11-18T05:16:59.896Z,99.90
2022-11-18T05:18:01.635Z,99.90
2022-11-18T05:19:05.169Z,99.90
2022-11-18T05:20:07.437Z,99.90
2022-11-18T05:21:09.256Z,99.90
2022-11-18T05:22:11.008Z,99.90
2022-11-18T05:23:12.737Z,99.90
2022-11-18T05:24:14.545Z,99.90
2022-11-18T05:25:16.578Z,99.90
2022-11-18T05:26:18.388Z,99.90
2022-11-18T05:27:20.164Z,99.90
2022-11-18T05:28:21.893Z,99.90
2022-11-18T05:29:23.914Z,99.90
2022-11-18T05:30:25.681Z,99.90
2022-11-18T05:31:27.620Z,99.90
2022-11-18T05:32:29.377Z,99.90
2022-11-18T05:33:31.144Z,99.90
2022-11-18T05:34:32.906Z,99.90
2022-11-18T05:35:37.382Z,99.90
2022-11-18T05:36:39.185Z,99.90
2022-11-18T05:37:40.927Z,99.90
2022-11-18T05:38:43.232Z,99.90
2022-11-18T05:39:44.959Z,99.90
2022-11-18T05:40:46.700Z,99.90
2022-11-18T05:42:07.186Z,99.90
2022-11-18T05:43:12.090Z,99.90
2022-11-18T05:44:13.970Z,99.90
2022-11-18T05:45:16.187Z,99.90
2022-11-18T05:46:17.963Z,99.90
2022-11-18T05:47:19.787Z,99.90
2022-11-18T05:48:21.879Z,99.90
2022-11-18T05:49:23.851Z,99.90
2022-11-18T05:50:25.640Z,99.90
2022-11-18T05:51:27.413Z,99.90
2022-11-18T05:52:29.140Z,99.90
2022-11-18T05:53:30.874Z,99.90
2022-11-18T05:54:33.076Z,99.90
2022-11-18T05:55:56.992Z,99.90
2022-11-18T05:56:58.738Z,99.90
2022-11-18T05:58:00.458Z,99.90
2022-11-18T05:59:02.273Z,99.90
2022-11-18T06:00:04.580Z,99.90
2022-11-18T06:01:08.483Z,99.90
2022-11-18T06:02:20.368Z,99.90
2022-11-18T06:03:30.717Z,99.90
2022-11-18T06:04:41.515Z,99.90
2022-11-18T06:05:43.489Z,99.90
2022-11-18T06:06:47.840Z,99.90
2022-11-18T06:07:49.611Z,99.90
2022-11-18T06:09:02.436Z,99.90
2022-11-18T06:10:08.610Z,99.90
2022-11-18T06:11:13.256Z,99.90
2022-11-18T06:12:19.314Z,99.90
2022-11-18T06:13:29.074Z,99.90
2022-11-18T06:14:45.869Z,99.90
2022-11-18T06:15:47.852Z,99.90
2022-11-18T06:16:54.973Z,99.90
2022-11-18T06:18:02.141Z,99.90
2022-11-18T06:19:04.306Z,99.90
2022-11-18T06:20:06.743Z,99.90
2022-11-18T06:21:08.591Z,99.90
2022-11-18T06:22:10.662Z,99.90
2022-11-18T06:23:12.738Z,99.90
2022-11-18T06:24:14.736Z,99.90
2022-11-18T06:25:17.064Z,99.90
2022-11-18T06:26:18.925Z,99.90
2022-11-18T06:27:20.980Z,99.90
2022-11-18T06:28:23.495Z,99.90
2022-11-18T06:29:27.882Z,99.90
2022-11-18T06:30:30.062Z,99.90
2022-11-18T06:31:31.804Z,99.90
2022-11-18T06:32:33.571Z,99.90
2022-11-18T06:33:35.350Z,99.90
2022-11-18T06:34:41.473Z,99.90
2022-11-18T06:35:44.219Z,99.90
2022-11-18T06:36:45.976Z,99.90
2022-11-18T06:37:47.757Z,99.90
2022-11-18T06:38:49.531Z,99.90
2022-11-18T06:39:51.416Z,99.90
2022-11-18T06:40:53.213Z,99.90
2022-11-18T06:41:54.979Z,99.90
2022-11-18T06:43:15.125Z,99.90
2022-11-18T06:44:16.899Z,99.90
2022-11-18T06:45:18.788Z,99.90
2022-11-18T06:46:38.927Z,99.90
2022-11-18T06:47:40.707Z,99.90
2022-11-18T06:48:42.430Z,99.90
2022-11-18T06:49:44.255Z,99.90
2022-11-18T06:50:46.004Z,99.90
2022-11-18T06:51:47.962Z,99.90
2022-11-18T06:52:49.786Z,99.90
2022-11-18T06:53:52.042Z,99.90
2022-11-18T06:54:53.802Z,99.90
2022-11-18T06:55:55.544Z,99.90
2022-11-18T06:56:57.302Z,99.90
2022-11-18T06:57:59.045Z,99.90
2022-11-18T06:59:00.780Z,99.90
2022-11-18T07:00:03.045Z,99.90
2022-11-18T07:01:26.404Z,99.90
2022-11-18T07:02:28.170Z,99.90
2022-11-18T07:03:29.900Z,99.90
2022-11-18T07:04:33.628Z,99.90
2022-11-18T07:05:35.377Z,99.90
2022-11-18T07:06:37.624Z,99.90
2022-11-18T07:07:42.181Z,99.90
2022-11-18T07:08:44.715Z,99.90
2022-11-18T07:09:46.481Z,99.90
2022-11-18T07:10:54.466Z,99.90
2022-11-18T07:11:56.853Z,99.90
2022-11-18T07:12:58.584Z,99.90
2022-11-18T07:14:01.207Z,99.90
2022-11-18T07:15:03.060Z,99.90
2022-11-18T07:16:10.492Z,99.90
2022-11-18T07:17:12.310Z,99.90
2022-11-18T07:18:14.079Z,99.90
2022-11-18T07:19:16.207Z,99.90
2022-11-18T07:20:18.303Z,99.90
2022-11-18T07:21:28.490Z,99.90
2022-11-18T07:22:30.319Z,99.90
2022-11-18T07:23:33.512Z,99.90
2022-11-18T07:24:35.414Z,99.90
2022-11-18T07:25:41.245Z,99.90
2022-11-18T07:26:46.260Z,99.90
2022-11-18T07:27:48.024Z,99.90
2022-11-18T07:28:49.876Z,99.90
2022-11-18T07:29:51.614Z,99.90
2022-11-18T07:30:53.472Z,99.90
2022-11-18T07:31:55.395Z,99.90
2022-11-18T07:32:57.146Z,99.90
2022-11-18T07:33:58.913Z,99.90
2022-11-18T07:35:00.656Z,99.90
2022-11-18T07:36:06.566Z,99.90
2022-11-18T07:37:08.348Z,99.90
2022-11-18T07:38:10.179Z,99.90
2022-11-18T07:39:11.966Z,99.90
2022-11-18T07:40:13.701Z,99.90
2022-11-18T07:41:18.062Z,99.90
2022-11-18T07:42:21.013Z,99.90
2022-11-18T07:43:22.962Z,99.90
2022-11-18T07:44:24.757Z,99.90
2022-11-18T07:45:26.571Z,99.90
2022-11-18T07:46:34.128Z,99.90
2022-11-18T07:47:35.834Z,99.90
2022-11-18T07:48:37.642Z,99.90
2022-11-18T07:49:39.406Z,99.90
2022-11-18T07:50:46.856Z,99.90
2022-11-18T07:51:49.007Z,99.90
2022-11-18T07:52:50.800Z,99.90
2022-11-18T07:53:53.214Z,99.90
2022-11-18T07:54:54.922Z,99.90
2022-11-18T07:55:56.733Z,99.90
2022-11-18T07:56:58.485Z,99.90
2022-11-18T07:58:00.231Z,99.90
2022-11-18T07:59:02.038Z,99.90
2022-11-18T08:00:04.739Z,99.90
2022-11-18T08:01:10.738Z,99.90
2022-11-18T08:02:13.230Z,99.90
2022-11-18T08:03:14.971Z,99.90
2022-11-18T08:04:17.996Z,99.90
2022-11-18T08:05:20.007Z,99.90
2022-11-18T08:06:21.886Z,99.90
2022-11-18T08:07:23.761Z,99.90
2022-11-18T08:08:25.624Z,99.90
2022-11-18T08:09:27.414Z,99.90
2022-11-18T08:10:29.148Z,99.90
2022-11-18T08:11:30.974Z,99.90
2022-11-18T08:12:32.760Z,99.90
2022-11-18T08:13:35.462Z,99.90
2022-11-18T08:14:37.197Z,99.90
2022-11-18T08:15:42.978Z,99.90
2022-11-18T08:16:44.799Z,99.90
2022-11-18T08:17:46.553Z,99.90
2022-11-18T08:18:48.503Z,99.90
2022-11-18T08:19:50.236Z,99.90
2022-11-18T08:20:52.274Z,99.90
2022-11-18T08:21:54.017Z,99.90
2022-11-18T08:22:55.754Z,99.90
2022-11-18T08:23:58.642Z,99.90
2022-11-18T08:25:00.472Z,99.90
2022-11-18T08:26:11.011Z,99.90
2022-11-18T08:27:12.824Z,99.90
2022-11-18T08:28:15.460Z,99.90
2022-11-18T08:29:21.887Z,99.90
2022-11-18T08:30:26.436Z,99.90
2022-11-18T08:31:30.625Z,99.90
2022-11-18T08:32:32.369Z,99.90
2022-11-18T08:33:34.118Z,99.90
2022-11-18T08:34:36.104Z,99.90
2022-11-18T08:35:37.931Z,99.90
2022-11-18T08:36:39.721Z,99.90
2022-11-18T08:37:41.470Z,99.90
2022-11-18T08:38:43.813Z,99.90
2022-11-18T08:39:45.568Z,99.90
2022-11-18T08:40:48.167Z,99.90
2022-11-18T08:41:50.403Z,99.90
2022-11-18T08:42:52.198Z,99.90
2022-11-18T08:43:53.924Z,99.90
2022-11-18T08:44:55.879Z,99.90
2022-11-18T08:45:57.638Z,99.90
2022-11-18T08:46:59.364Z,99.90
2022-11-18T08:48:01.090Z,99.90
2022-11-18T08:49:03.005Z,99.90
2022-11-18T08:50:06.388Z,99.90
2022-11-18T08:51:11.938Z,99.90
2022-11-18T08:52:13.691Z,99.90
2022-11-18T08:53:15.949Z,99.90
2022-11-18T08:54:17.724Z,99.90
2022-11-18T08:55:19.575Z,99.90
2022-11-18T08:56:23.403Z,99.90
2022-11-18T08:57:25.300Z,99.90
2022-11-18T08:58:27.368Z,99.90
2022-11-18T08:59:29.163Z,99.90
2022-11-18T09:00:30.911Z,99.90
2022-11-18T09:01:32.709Z,99.90
2022-11-18T09:02:34.517Z,99.90
2022-11-18T09:03:37.091Z,99.90
2022-11-18T09:04:38.831Z,99.90
2022-11-18T09:05:40.574Z,99.90
2022-11-18T09:06:42.386Z,99.90
2022-11-18T09:07:44.834Z,99.90
2022-11-18T09:08:47.275Z,99.90
2022-11-18T09:09:50.521Z,99.90
2022-11-18T09:10:52.276Z,99.90
2022-11-18T09:11:54.073Z,99.90
2022-11-18T09:13:07.101Z,99.90
2022-11-18T09:15:12.529Z,99.90
2022-11-18T09:15:40.268Z,99.90
2022-11-18T09:16:42.027Z,99.90
2022-11-18T09:17:43.816Z,99.90
2022-11-18T09:18:45.607Z,99.90
2022-11-18T09:19:48.373Z,99.90
2022-11-18T09:20:57.821Z,99.90
2022-11-18T09:21:59.689Z,99.90
2022-11-18T09:23:01.483Z,99.90
2022-11-18T09:24:07.656Z,99.90
2022-11-18T09:25:09.996Z,99.90
2022-11-18T09:26:13.678Z,99.90
2022-11-18T09:27:17.293Z,99.90
2022-11-18T09:28:19.554Z,99.90
2022-11-18T09:29:25.916Z,99.90
2022-11-18T09:30:27.802Z,99.90
2022-11-18T09:31:29.554Z,99.90
2022-11-18T09:32:33.073Z,99.90
2022-11-18T09:33:35.767Z,99.90
2022-11-18T09:34:37.603Z,99.90
2022-11-18T09:35:42.996Z,99.90
2022-11-18T09:36:45.026Z,99.90
2022-11-18T09:37:46.809Z,99.90
2022-11-18T09:38:53.003Z,99.90
2022-11-18T09:39:55.219Z,99.90
2022-11-18T09:41:05.657Z,99.90
2022-11-18T09:42:28.358Z,99.90
2022-11-18T09:43:58.100Z,99.90
2022-11-18T09:45:37.193Z,99.90
2022-11-18T09:46:38.904Z,99.90
2022-11-18T09:47:40.716Z,99.90
2022-11-18T09:49:00.927Z,99.90
2022-11-18T09:50:33.946Z,99.90
2022-11-18T09:51:32.672Z,99.90
2022-11-18T09:52:38.576Z,99.90
2022-11-18T09:53:44.300Z,99.90
2022-11-18T09:54:46.841Z,99.90
2022-11-18T09:55:50.830Z,99.90
2022-11-18T09:56:54.934Z,99.90
2022-11-18T09:57:58.922Z,99.90
2022-11-18T09:59:00.721Z,99.90
2022-11-18T10:00:03.095Z,99.90
2022-11-18T10:01:14.819Z,99.90
2022-11-18T10:02:35.209Z,99.90
2022-11-18T10:03:39.052Z,99.90
2022-11-18T10:04:40.831Z,99.90
2022-11-18T10:05:53.956Z,99.90
2022-11-18T10:06:56.645Z,99.90
2022-11-18T10:08:09.107Z,99.90
2022-11-18T10:09:19.799Z,99.90
2022-11-18T10:10:30.349Z,99.90
2022-11-18T10:11:56.357Z,99.90
2022-11-18T10:13:13.040Z,99.90
2022-11-18T10:14:27.842Z,99.90
2022-11-18T10:15:36.489Z,99.90
2022-11-18T10:16:44.194Z,99.90
2022-11-18T10:18:12.087Z,99.90
2022-11-18T10:19:26.209Z,99.90
2022-11-18T10:20:43.044Z,99.90
2022-11-18T10:22:22.666Z,99.90
2022-11-18T10:23:42.147Z,99.90
2022-11-18T10:24:49.276Z,99.90
2022-11-18T10:25:53.412Z,99.90
2022-11-18T10:26:57.443Z,99.90
2022-11-18T10:28:15.143Z,99.90
2022-11-18T10:29:16.942Z,99.90
2022-11-18T10:30:24.846Z,99.90
2022-11-18T10:31:26.594Z,99.90
2022-11-18T10:32:28.565Z,99.90
2022-11-18T10:33:30.801Z,99.90
2022-11-18T10:34:34.529Z,99.90
2022-11-18T10:35:38.611Z,99.90
2022-11-18T10:36:40.674Z,99.90
2022-11-18T10:39:09.245Z,99.90
2022-11-18T10:40:27.026Z,99.90
2022-11-18T10:41:28.818Z,99.90
2022-11-18T10:42:40.988Z,99.90
2022-11-18T10:43:50.419Z,99.90
2022-11-18T10:44:52.261Z,99.90
2022-11-18T10:45:54.100Z,99.90
2022-11-18T10:46:56.328Z,99.90
2022-11-18T10:48:15.162Z,99.90
2022-11-18T10:49:17.520Z,99.90
2022-11-18T10:50:28.545Z,99.90
2022-11-18T10:51:30.377Z,99.90
2022-11-18T10:52:32.205Z,99.90
2022-11-18T10:53:37.669Z,99.90
2022-11-18T10:54:40.437Z,99.90
2022-11-18T10:55:42.277Z,99.90
2022-11-18T10:56:57.757Z,99.90
2022-11-18T10:58:10.112Z,99.90
2022-11-18T10:59:28.811Z,99.90
2022-11-18T11:00:42.178Z,99.90
2022-11-18T11:01:56.766Z,99.90
2022-11-18T11:02:58.618Z,99.90
2022-11-18T11:04:17.271Z,99.90
2022-11-18T11:05:23.611Z,99.90
2022-11-18T11:06:31.063Z,99.90
2022-11-18T11:07:35.976Z,99.90
2022-11-18T11:08:51.904Z,99.90
2022-11-18T11:10:06.843Z,99.90
2022-11-18T11:11:26.180Z,99.90
2022-11-18T11:12:31.763Z,99.90
2022-11-18T11:13:38.836Z,99.90
2022-11-18T11:15:06.416Z,99.90
2022-11-18T11:16:13.627Z,99.90
2022-11-18T11:17:31.910Z,99.90
2022-11-18T11:18:41.483Z,99.90
2022-11-18T11:19:59.418Z,99.90
2022-11-18T11:21:01.351Z,99.90
2022-11-18T11:22:03.084Z,99.90
2022-11-18T11:23:14.842Z,99.90
2022-11-18T11:24:19.985Z,99.90
2022-11-18T11:25:26.987Z,99.90
2022-11-18T11:28:30.409Z,99.90
2022-11-18T11:29:46.575Z,99.90
2022-11-18T11:31:25.932Z,99.90
2022-11-18T11:32:46.554Z,99.90
2022-11-18T11:33:58.400Z,99.90
2022-11-18T11:35:22.275Z,99.90
2022-11-18T11:36:43.333Z,99.90
2022-11-18T11:37:55.125Z,99.90
2022-11-18T11:39:18.726Z,99.90
2022-11-18T11:40:33.562Z,99.90
2022-11-18T11:41:53.144Z,99.90
2022-11-18T11:43:16.753Z,99.90
2022-11-18T11:44:56.520Z,99.90
2022-11-18T11:46:19.317Z,99.90
2022-11-18T11:47:45.476Z,99.90
2022-11-18T11:49:07.435Z,99.90
2022-11-18T11:51:01.630Z,99.90
2022-11-18T11:52:24.518Z,99.90
2022-11-18T11:53:54.999Z,99.90
2022-11-18T11:55:10.842Z,99.90
2022-11-18T11:56:30.317Z,99.90
2022-11-18T11:58:02.540Z,99.90
2022-11-18T11:59:13.972Z,99.90
2022-11-18T12:00:18.607Z,99.90
2022-11-18T12:01:43.085Z,99.90
2022-11-18T12:02:53.836Z,99.90
2022-11-18T12:04:37.555Z,99.90
2022-11-18T12:05:42.965Z,99.90
2022-11-18T12:06:49.554Z,99.90
2022-11-18T12:07:57.715Z,99.90
2022-11-18T12:09:17.847Z,99.90
2022-11-18T12:10:34.620Z,99.90
2022-11-18T12:12:05.769Z,99.90
2022-11-18T12:13:33.199Z,99.90
2022-11-18T12:14:46.221Z,99.90
2022-11-18T12:16:01.281Z,99.90
2022-11-18T12:17:19.171Z,99.90
2022-11-18T12:18:39.783Z,99.90
2022-11-18T12:19:41.889Z,99.90
2022-11-18T12:20:49.769Z,99.90
2022-11-18T12:21:58.375Z,99.90
2022-11-18T12:23:17.789Z,99.90
2022-11-18T12:24:39.618Z,99.90
2022-11-18T12:25:53.420Z,99.90
2022-11-18T12:26:55.962Z,99.90
2022-11-18T12:27:59.999Z,99.90
2022-11-18T12:29:40.403Z,99.90
2022-11-18T12:30:42.283Z,99.90
2022-11-18T12:31:45.419Z,99.90
2022-11-18T12:32:47.200Z,99.90
2022-11-18T12:33:53.500Z,99.90
2022-11-18T12:35:13.557Z,99.90
2022-11-18T12:36:39.648Z,99.90
2022-11-18T12:37:53.719Z,99.90
2022-11-18T12:38:56.611Z,99.90
2022-11-18T12:39:59.160Z,99.90
2022-11-18T12:41:20.874Z,99.90
2022-11-18T12:42:56.793Z,99.90
2022-11-18T12:44:01.341Z,99.90
2022-11-18T12:45:47.496Z,99.90
2022-11-18T12:46:50.533Z,99.90
2022-11-18T12:47:52.226Z,99.90
2022-11-18T12:48:53.998Z,99.90
2022-11-18T12:50:45.078Z,99.90
2022-11-18T12:51:46.908Z,99.80
2022-11-18T12:52:49.684Z,99.70
2022-11-18T12:53:52.853Z,99.90
2022-11-18T12:54:55.733Z,99.90
2022-11-18T12:55:58.147Z,99.90
2022-11-18T12:57:03.209Z,99.90
2022-11-18T12:58:22.736Z,99.90
2022-11-18T12:59:33.906Z,99.90
2022-11-18T13:00:52.253Z,99.90
2022-11-18T13:02:25.690Z,99.90
2022-11-18T13:03:29.090Z,99.90
2022-11-18T13:04:31.030Z,99.90
2022-11-18T13:05:35.779Z,99.90
2022-11-18T13:06:39.112Z,99.90
2022-11-18T13:08:14.214Z,99.90
2022-11-18T13:09:23.113Z,99.90
2022-11-18T13:10:29.200Z,99.80
2022-11-18T13:11:47.261Z,99.90
2022-11-18T13:12:49.662Z,99.90
2022-11-18T13:14:12.549Z,99.90
2022-11-18T13:15:33.729Z,99.90
2022-11-18T13:16:59.233Z,99.90
2022-11-18T13:18:14.384Z,99.90
2022-11-18T13:19:23.774Z,99.90
2022-11-18T13:20:36.170Z,99.90
2022-11-18T13:21:56.590Z,99.90
2022-11-18T13:23:19.563Z,99.90
2022-11-18T13:24:22.688Z,99.80
2022-11-18T13:25:26.158Z,99.90
2022-11-18T13:26:30.676Z,99.90
2022-11-18T13:27:38.180Z,99.90
2022-11-18T13:28:55.175Z,99.90
2022-11-18T13:30:10.521Z,99.90
2022-11-18T13:31:22.962Z,99.90
2022-11-18T13:32:29.441Z,99.90
2022-11-18T13:33:36.558Z,99.90
2022-11-18T13:34:47.930Z,99.80
2022-11-18T13:35:49.829Z,99.90
2022-11-18T13:36:54.206Z,99.90
2022-11-18T13:38:01.186Z,99.90
2022-11-18T13:39:06.333Z,99.90
2022-11-18T13:40:22.615Z,99.90
2022-11-18T13:41:32.598Z,99.90
2022-11-18T13:42:34.355Z,99.90
2022-11-18T13:43:36.924Z,99.90
2022-11-18T13:44:38.656Z,99.90
2022-11-18T13:45:41.046Z,99.90
2022-11-18T13:46:44.463Z,99.90
2022-11-18T13:47:52.204Z,99.90
2022-11-18T13:48:58.207Z,99.90
2022-11-18T13:50:05.776Z,99.90
2022-11-18T13:51:07.747Z,99.90
2022-11-18T13:52:19.185Z,99.90
2022-11-18T13:53:38.944Z,99.90
2022-11-18T13:54:41.729Z,99.90
2022-11-18T13:55:55.250Z,99.90
2022-11-18T13:56:57.213Z,99.90
2022-11-18T13:58:06.042Z,99.90
2022-11-18T13:59:28.950Z,99.90
2022-11-18T14:00:34.551Z,99.90
2022-11-18T14:01:36.676Z,99.90
2022-11-18T14:02:46.246Z,99.90
2022-11-18T14:04:00.896Z,99.90
2022-11-18T14:05:03.341Z,99.90
2022-11-18T14:06:05.306Z,99.90
2022-11-18T14:07:25.203Z,99.90
2022-11-18T14:08:30.065Z,99.90
2022-11-18T14:09:32.059Z,99.90
2022-11-18T14:10:44.600Z,99.90
2022-11-18T14:12:09.391Z,99.90
2022-11-18T14:13:34.710Z,99.90
2022-11-18T14:14:38.650Z,99.90
2022-11-18T14:15:43.839Z,99.90
2022-11-18T14:16:46.083Z,99.90
2022-11-18T14:17:56.258Z,99.20
2022-11-18T14:18:58.067Z,99.20
2022-11-18T14:20:07.346Z,99.00
2022-11-18T14:21:12.435Z,99.00
2022-11-18T14:22:18.531Z,98.80
2022-11-18T14:23:31.549Z,98.60
2022-11-18T14:24:33.543Z,98.40
2022-11-18T14:25:36.848Z,98.20
2022-11-18T14:26:38.985Z,98.30
2022-11-18T14:27:43.442Z,98.50
2022-11-18T14:28:58.060Z,98.30